^^
Lisbon, NH - Weather Station Historical Data
Daily Summary for September 6, 2021 Units:  English    Metric   Both
Daily Weekly Monthly Yearly
  High: Low: Average:
Temperature: 66.1 °F 62.6 °F 64.6 °F
Dew Point: 65.8 °F 62.6 °F 64.6 °F
Humidity: 100% 98% 100%
Wind Speed: 0.3mph 0mph 0mph
Wind Gust: 1mph - -
Wind- - SW
Pressure: 29.70 in 29.67 in -
Precipitation: 0.03 in    
 
 
Tabular Data for September 6, 2021
Time Temperature Dew Point Pressure Wind Wind Speed Wind Gust Humidity Rainfall Rate (Hourly) solar
00:04 66.1 °F 65.5 °F 29.70 in Calm     98% 0.02 in 0 W/m2
00:09 66.1 °F 65.6 °F 29.70 in Calm     98.3% 0.02 in 0 W/m2
00:14 66.1 °F 65.8 °F 29.70 in Calm     99% 0.02 in 0 W/m2
00:19 66 °F 65.7 °F 29.69 in Calm     99% 0.02 in 0 W/m2
00:24 66 °F 65.7 °F 29.69 in Calm     99% 0.03 in 0 W/m2
00:29 66 °F 65.7 °F 29.69 in Calm     99% 0.03 in 0 W/m2
00:34 66 °F 65.7 °F 29.69 in Calm     99.1% 0.03 in 0 W/m2
00:39 65.8 °F 65.8 °F 29.69 in Calm     100% 0.03 in 0 W/m2
00:44 65.8 °F 65.8 °F 29.69 in Calm     100% 0.03 in 0 W/m2
00:49 65.8 °F 65.8 °F 29.69 in Calm     100% 0.03 in 0 W/m2
00:54 65.8 °F 65.8 °F 29.69 in Calm     100% 0.03 in 0 W/m2
00:59 65.8 °F 65.8 °F 29.69 in SW 0.3 mph 1 mph 100% 0.03 in 0 W/m2
01:04 65.8 °F 65.8 °F 29.69 in Calm   1 mph 100% 0.03 in 0 W/m2
01:09 65.8 °F 65.8 °F 29.69 in Calm     100% 0.02 in 0 W/m2
01:14 65.8 °F 65.8 °F 29.69 in Calm     100% 0.02 in 0 W/m2
01:19 65.8 °F 65.8 °F 29.69 in Calm     100% 0.01 in 0 W/m2
01:24 65.8 °F 65.8 °F 29.69 in Calm     100% 0.01 in 0 W/m2
01:29 65.8 °F 65.8 °F 29.69 in SW 0.1 mph 1 mph 100% 0.01 in 0 W/m2
01:34 65.7 °F 65.7 °F 29.69 in Calm   1 mph 100% 0.01 in 0 W/m2
01:39 65.6 °F 65.6 °F 29.69 in Calm     100% 0.00 in 0 W/m2
01:44 65.6 °F 65.6 °F 29.69 in Calm     100% 0.00 in 0 W/m2
01:49 65.6 °F 65.6 °F 29.69 in Calm     100% 0.00 in 0 W/m2
01:54 65.6 °F 65.6 °F 29.69 in Calm     100% 0.00 in 0 W/m2
01:59 65.6 °F 65.6 °F 29.69 in Calm     100% 0.00 in 0 W/m2
02:04 65.6 °F 65.6 °F 29.69 in Calm     100% 0.00 in 0 W/m2
02:09 65.5 °F 65.5 °F 29.69 in Calm     100% 0.00 in 0 W/m2
02:14 65.5 °F 65.5 °F 29.69 in Calm     100% 0.00 in 0 W/m2
02:19 65.5 °F 65.5 °F 29.69 in Calm     100% 0.00 in 0 W/m2
02:24 65.5 °F 65.5 °F 29.69 in Calm     100% 0.00 in 0 W/m2
02:29 65.5 °F 65.5 °F 29.69 in Calm     100% 0.00 in 0 W/m2
02:34 65.5 °F 65.5 °F 29.69 in Calm     100% 0.00 in 0 W/m2
02:39 65.5 °F 65.5 °F 29.69 in Calm     100% 0.00 in 0 W/m2
02:44 65.4 °F 65.4 °F 29.69 in Calm     100% 0.00 in 0 W/m2
02:49 65.3 °F 65.3 °F 29.69 in Calm     100% 0.00 in 0 W/m2
02:54 65.3 °F 65.3 °F 29.69 in Calm     100% 0.00 in 0 W/m2
02:59 65.2 °F 65.2 °F 29.69 in Calm     100% 0.00 in 0 W/m2
03:04 65.1 °F 65.1 °F 29.68 in Calm     100% 0.00 in 0 W/m2
03:09 64.9 °F 64.9 °F 29.68 in Calm     100% 0.00 in 0 W/m2
03:14 64.7 °F 64.7 °F 29.68 in Calm     100% 0.00 in 0 W/m2
03:19 64.6 °F 64.6 °F 29.68 in Calm     100% 0.00 in 0 W/m2
03:24 64.4 °F 64.4 °F 29.68 in Calm     100% 0.00 in 0 W/m2
03:29 64.3 °F 64.3 °F 29.68 in Calm     100% 0.00 in 0 W/m2
03:34 64.2 °F 64.2 °F 29.68 in Calm     100% 0.00 in 0 W/m2
03:39 64 °F 64 °F 29.68 in Calm     100% 0.00 in 0 W/m2
03:44 63.9 °F 63.9 °F 29.68 in Calm     100% 0.00 in 0 W/m2
03:49 63.9 °F 63.9 °F 29.68 in Calm     100% 0.00 in 0 W/m2
03:54 63.8 °F 63.8 °F 29.68 in Calm     100% 0.00 in 0 W/m2
03:59 63.6 °F 63.6 °F 29.68 in Calm     100% 0.00 in 0 W/m2
04:04 63.5 °F 63.5 °F 29.67 in Calm     100% 0.00 in 0 W/m2
04:09 63.4 °F 63.4 °F 29.67 in Calm     100% 0.00 in 0 W/m2
04:14 63.4 °F 63.4 °F 29.68 in Calm     100% 0.00 in 0 W/m2
04:19 63.4 °F 63.4 °F 29.68 in Calm     100% 0.00 in 0 W/m2
04:24 63.3 °F 63.3 °F 29.68 in Calm     100% 0.00 in 0 W/m2
04:29 63.2 °F 63.2 °F 29.68 in Calm     100% 0.00 in 0 W/m2
04:34 63.2 °F 63.2 °F 29.68 in Calm     100% 0.00 in 0 W/m2
04:39 63.1 °F 63.1 °F 29.68 in Calm     100% 0.00 in 0 W/m2
04:44 62.9 °F 62.9 °F 29.68 in Calm     100% 0.00 in 0 W/m2
04:49 62.9 °F 62.9 °F 29.68 in Calm     100% 0.01 in 0 W/m2
04:54 62.7 °F 62.7 °F 29.68 in Calm     100% 0.01 in 0 W/m2
04:59 62.6 °F 62.6 °F 29.68 in Calm     100% 0.01 in 0 W/m2
05:04 62.6 °F 62.6 °F 29.68 in Calm     100% 0.01 in 0 W/m2
05:09 62.6 °F 62.6 °F 29.68 in Calm     100% 0.01 in 0 W/m2
05:14 62.6 °F 62.6 °F 29.68 in Calm     100% 0.01 in 0 W/m2
05:19 62.6 °F 62.6 °F 29.68 in Calm     100% 0.01 in 0 W/m2
05:24 62.7 °F 62.7 °F 29.68 in Calm     100% 0.01 in 0 W/m2
05:29 62.8 °F 62.8 °F 29.68 in Calm     100% 0.01 in 0 W/m2
05:34 62.9 °F 62.9 °F 29.68 in Calm     100% 0.01 in 0 W/m2
05:39 62.9 °F 62.9 °F 29.68 in Calm     100% 0.01 in 0 W/m2
05:44 63.1 °F 63.1 °F 29.68 in Calm     100% 0.01 in 0 W/m2
05:49 63.1 °F 63.1 °F 29.68 in Calm     100% 0.01 in 0 W/m2
Lisbon, New Hampshire, USA
Compliments of Weather Underground - 2.75 mb